createdAt,value
2022-09-10T00:02:11.292Z,22.30
2022-09-10T00:12:16.382Z,22.50
2022-09-10T00:22:20.666Z,22.60
2022-09-10T00:32:25.763Z,22.50
2022-09-10T00:42:29.492Z,22.40
2022-09-10T00:52:39.643Z,22.20
2022-09-10T01:02:44.488Z,22.20
2022-09-10T01:13:22.033Z,22.10
2022-09-10T01:24:01.523Z,22.10
2022-09-10T01:34:13.119Z,22.00
2022-09-10T01:44:42.629Z,22.00
2022-09-10T01:55:08.887Z,22.00
2022-09-10T02:05:13.773Z,22.00
2022-09-10T02:15:22.625Z,21.90
2022-09-10T02:25:32.015Z,21.80
2022-09-10T02:35:37.285Z,21.80
2022-09-10T02:45:41.383Z,21.80
2022-09-10T02:55:48.341Z,21.80
2022-09-10T03:05:52.081Z,21.50
2022-09-10T03:15:58.985Z,21.50
2022-09-10T03:26:05.073Z,21.40
2022-09-10T03:36:13.558Z,21.40
2022-09-10T03:46:17.408Z,21.40
2022-09-10T03:56:22.652Z,21.20
2022-09-10T04:06:26.466Z,21.30
2022-09-10T04:16:32.830Z,21.30
2022-09-10T04:26:36.776Z,21.20
2022-09-10T04:36:42.071Z,21.50
2022-09-10T04:46:45.819Z,21.50
2022-09-10T04:56:51.651Z,21.40
2022-09-10T05:06:55.663Z,21.40
2022-09-10T05:17:01.333Z,21.20
2022-09-10T05:27:05.366Z,21.10
2022-09-10T05:37:12.380Z,21.20
2022-09-10T05:47:16.222Z,21.00
2022-09-10T05:57:21.418Z,21.50
2022-09-10T06:07:25.586Z,21.90
2022-09-10T06:17:30.955Z,22.30
2022-09-10T06:27:35.511Z,22.50
2022-09-10T06:37:40.682Z,22.60
2022-09-10T06:58:09.769Z,23.10
2022-09-10T07:08:14.424Z,23.50
2022-09-10T07:18:19.889Z,23.90
2022-09-10T07:28:23.707Z,24.60
2022-09-10T07:38:28.982Z,25.00
2022-09-10T07:48:32.795Z,25.40
2022-09-10T07:58:38.648Z,25.20
2022-09-10T08:08:43.054Z,25.60
2022-09-10T08:18:49.226Z,25.80
2022-09-10T08:28:53.059Z,26.20
2022-09-10T08:39:01.515Z,26.00
2022-09-10T08:49:16.185Z,26.10
2022-09-10T08:59:26.989Z,26.40
2022-09-10T09:09:30.800Z,27.00
2022-09-10T09:19:42.165Z,27.30
2022-09-10T09:29:51.458Z,27.30
2022-09-10T09:40:07.832Z,27.70
2022-09-10T09:50:13.152Z,27.80
2022-09-10T10:00:37.598Z,28.00
2022-09-10T10:10:41.891Z,28.40
2022-09-10T10:20:47.159Z,27.80
2022-09-10T10:30:54.027Z,28.10
2022-09-10T10:41:37.319Z,27.60
2022-09-10T10:51:53.423Z,28.80
2022-09-10T11:02:11.606Z,29.30
2022-09-10T11:12:20.298Z,29.80
2022-09-10T11:22:31.334Z,29.80
2022-09-10T11:32:40.388Z,30.20
2022-09-10T11:42:48.265Z,30.70
2022-09-10T11:52:53.622Z,30.90
2022-09-10T12:03:37.959Z,31.50
2022-09-10T12:13:42.560Z,31.30
2022-09-10T12:23:47.722Z,31.70
2022-09-10T12:34:14.981Z,32.70
2022-09-10T12:44:44.879Z,32.20
2022-09-10T12:54:57.365Z,32.80
2022-09-10T13:05:06.546Z,32.20
2022-09-10T13:15:19.993Z,32.10
2022-09-10T13:25:37.097Z,33.60
2022-09-10T13:36:15.176Z,33.90
2022-09-10T13:46:28.568Z,34.30
2022-09-10T13:56:34.037Z,34.80
2022-09-10T14:06:40.144Z,34.20
2022-09-10T14:16:47.035Z,34.60
2022-09-10T14:27:07.732Z,35.40
2022-09-10T14:37:27.944Z,35.10
2022-09-10T14:47:37.405Z,35.00
2022-09-10T14:57:41.644Z,34.70
2022-09-10T15:07:47.639Z,35.00
2022-09-10T15:17:51.371Z,34.20
2022-09-10T15:27:56.493Z,33.30
2022-09-10T15:38:01.971Z,34.00
2022-09-10T15:48:07.333Z,32.10
2022-09-10T15:58:12.865Z,30.80
2022-09-10T16:08:17.948Z,30.30
2022-09-10T16:18:21.626Z,29.70
2022-09-10T16:28:27.056Z,29.10
2022-09-10T16:38:31.011Z,29.00
2022-09-10T16:48:37.264Z,28.80
2022-09-10T16:58:42.517Z,28.60
2022-09-10T17:08:48.737Z,28.60
2022-09-10T17:18:57.470Z,28.00
2022-09-10T17:29:04.899Z,28.00
2022-09-10T17:39:08.916Z,28.00
2022-09-10T17:49:15.870Z,27.80
2022-09-10T17:59:19.647Z,27.40
2022-09-10T18:09:26.673Z,27.20
2022-09-10T18:19:30.541Z,27.20
2022-09-10T18:29:35.745Z,27.30
2022-09-10T18:39:39.780Z,27.00
2022-09-10T18:49:45.389Z,27.00
2022-09-10T18:59:49.283Z,26.90
2022-09-10T19:09:54.481Z,26.90
2022-09-10T19:19:58.253Z,26.90
2022-09-10T19:30:03.804Z,26.80
2022-09-10T19:40:08.370Z,26.80
2022-09-10T19:50:14.029Z,26.80
2022-09-10T20:00:43.202Z,26.40
2022-09-10T20:10:52.179Z,26.20
2022-09-10T20:20:56.290Z,25.80
2022-09-10T20:31:02.164Z,25.50
2022-09-10T20:41:07.907Z,25.40
2022-09-10T20:51:13.686Z,25.30
2022-09-10T21:01:19.452Z,25.20
2022-09-10T21:11:25.996Z,25.10
2022-09-10T21:21:31.609Z,24.90
2022-09-10T21:31:37.041Z,25.00
2022-09-10T21:41:42.817Z,25.10
2022-09-10T21:51:47.950Z,25.00
2022-09-10T22:01:52.034Z,25.10
2022-09-10T22:11:59.404Z,25.20
2022-09-10T22:22:03.222Z,25.20
2022-09-10T22:32:08.443Z,25.00
2022-09-10T22:42:12.233Z,25.00
2022-09-10T22:52:17.350Z,25.10
2022-09-10T23:02:21.176Z,25.20
2022-09-10T23:12:26.262Z,25.20
2022-09-10T23:22:30.033Z,25.30
2022-09-10T23:32:35.148Z,25.30
2022-09-10T23:42:39.551Z,25.40
2022-09-10T23:52:44.610Z,25.50
